Bathurst Airport Bathurst CA
ICAO: CZBF
IATA: ZBF
Category: Medium
Scheduled Services: Yes

Elevation: 193 ft
TransAlt. 18000 ft.

Airport Communications:
QUEBEC RDO:123.45
ATF/UNICOM:122.8

CZBF Zoom In..

If you have problems with the map follow the link
https://www.worldairports.se/pages/airport.php?
ICAO=CZBF

Runways:

(A) RW 10 length 4500 ft width 100 ft
---- / hdg 102

(B) RW 28 length 4500 ft width 100 ft
---- / hdg 282

Location; CZBF
Day. 21 / Time. 08.00 Zulu
* Altimeter: 29.48
* Temperature: -02° c. -28.4°f.
* Wind from: 000° Speed 00 kn.
Dewpoint: -03° c.
Visibility: 9 Statute Miles.
Clouds: Clear (automated report).

CZBF 210800Z AUTO 00000KT 9SM CLR M02/M03 A2948 RMK SLP988


Wind - Calm.

 
 
jpsmedia.com for Web Design worldairports.se 2018   terms of use